sensor_id;sensor_type;location;lat;lon;timestamp;temperature;humidity
5258;DHT22;2651;51.594;9.928;2023-08-24T00:00:13;19.00;1.00
5258;DHT22;2651;51.594;9.928;2023-08-24T00:01:15;19.00;1.00
5258;DHT22;2651;51.594;9.928;2023-08-24T00:02:18;19.00;1.00
5258;DHT22;2651;51.594;9.928;2023-08-24T00:03:19;19.00;1.00
5258;DHT22;2651;51.594;9.928;2023-08-24T00:04:23;19.00;1.00
5258;DHT22;2651;51.594;9.928;2023-08-24T00:05:24;19.00;1.00
5258;DHT22;2651;51.594;9.928;2023-08-24T00:06:26;19.00;1.00
5258;DHT22;2651;51.594;9.928;2023-08-24T00:07:29;19.00;1.00
5258;DHT22;2651;51.594;9.928;2023-08-24T00:08:30;19.00;1.00
5258;DHT22;2651;51.594;9.928;2023-08-24T00:09:32;19.00;1.00
5258;DHT22;2651;51.594;9.928;2023-08-24T00:10:34;18.90;1.00
5258;DHT22;2651;51.594;9.928;2023-08-24T00:11:36;18.90;99.90
5258;DHT22;2651;51.594;9.928;2023-08-24T00:12:38;18.90;99.90
5258;DHT22;2651;51.594;9.928;2023-08-24T00:13:42;18.90;99.90
5258;DHT22;2651;51.594;9.928;2023-08-24T00:14:47;18.90;99.90
5258;DHT22;2651;51.594;9.928;2023-08-24T00:15:49;18.90;99.90
5258;DHT22;2651;51.594;9.928;2023-08-24T00:16:51;18.90;99.90
5258;DHT22;2651;51.594;9.928;2023-08-24T00:17:53;18.80;99.90
5258;DHT22;2651;51.594;9.928;2023-08-24T00:18:55;18.80;99.90
5258;DHT22;2651;51.594;9.928;2023-08-24T00:19:57;18.80;99.90
5258;DHT22;2651;51.594;9.928;2023-08-24T00:20:59;18.70;99.90
5258;DHT22;2651;51.594;9.928;2023-08-24T00:22:01;18.80;99.90
5258;DHT22;2651;51.594;9.928;2023-08-24T00:23:03;18.80;99.90
5258;DHT22;2651;51.594;9.928;2023-08-24T00:24:05;18.80;1.00
5258;DHT22;2651;51.594;9.928;2023-08-24T00:25:07;18.70;1.00
5258;DHT22;2651;51.594;9.928;2023-08-24T00:26:10;18.80;99.90
5258;DHT22;2651;51.594;9.928;2023-08-24T00:27:11;18.70;99.90
5258;DHT22;2651;51.594;9.928;2023-08-24T00:28:15;18.70;1.00
5258;DHT22;2651;51.594;9.928;2023-08-24T00:29:16;18.80;1.00
5258;DHT22;2651;51.594;9.928;2023-08-24T00:30:18;18.70;1.00
5258;DHT22;2651;51.594;9.928;2023-08-24T00:31:20;18.80;1.00
5258;DHT22;2651;51.594;9.928;2023-08-24T00:32:23;18.80;1.00
5258;DHT22;2651;51.594;9.928;2023-08-24T00:33:24;18.70;1.00
5258;DHT22;2651;51.594;9.928;2023-08-24T00:34:26;18.70;1.00
5258;DHT22;2651;51.594;9.928;2023-08-24T00:35:28;18.80;1.00
5258;DHT22;2651;51.594;9.928;2023-08-24T00:36:29;18.80;1.00
5258;DHT22;2651;51.594;9.928;2023-08-24T00:37:32;18.70;1.00
5258;DHT22;2651;51.594;9.928;2023-08-24T00:38:34;18.70;1.00
5258;DHT22;2651;51.594;9.928;2023-08-24T00:39:35;18.70;1.00
5258;DHT22;2651;51.594;9.928;2023-08-24T00:40:37;18.70;1.00
5258;DHT22;2651;51.594;9.928;2023-08-24T00:41:40;18.70;1.00
5258;DHT22;2651;51.594;9.928;2023-08-24T00:42:44;18.70;1.00
5258;DHT22;2651;51.594;9.928;2023-08-24T00:43:47;18.60;1.00
5258;DHT22;2651;51.594;9.928;2023-08-24T00:44:49;18.60;1.00
5258;DHT22;2651;51.594;9.928;2023-08-24T00:45:51;18.50;1.00
5258;DHT22;2651;51.594;9.928;2023-08-24T00:46:53;18.50;1.00
5258;DHT22;2651;51.594;9.928;2023-08-24T00:47:55;18.50;8.40
5258;DHT22;2651;51.594;9.928;2023-08-24T00:48:57;18.50;1.00
5258;DHT22;2651;51.594;9.928;2023-08-24T00:50:00;18.50;23.30
5258;DHT22;2651;51.594;9.928;2023-08-24T00:51:02;18.50;99.90
5258;DHT22;2651;51.594;9.928;2023-08-24T00:52:04;18.50;99.90
5258;DHT22;2651;51.594;9.928;2023-08-24T00:53:06;18.50;99.90
5258;DHT22;2651;51.594;9.928;2023-08-24T00:54:08;18.50;99.90
5258;DHT22;2651;51.594;9.928;2023-08-24T00:55:10;18.40;99.90
5258;DHT22;2651;51.594;9.928;2023-08-24T00:56:11;18.40;1.00
5258;DHT22;2651;51.594;9.928;2023-08-24T00:57:13;18.20;99.90
5258;DHT22;2651;51.594;9.928;2023-08-24T00:58:15;18.10;1.00
5258;DHT22;2651;51.594;9.928;2023-08-24T00:59:18;17.90;99.90
5258;DHT22;2651;51.594;9.928;2023-08-24T01:00:20;17.90;9.10
5258;DHT22;2651;51.594;9.928;2023-08-24T01:01:22;17.90;1.00
5258;DHT22;2651;51.594;9.928;2023-08-24T01:02:24;17.90;99.90
5258;DHT22;2651;51.594;9.928;2023-08-24T01:03:26;18.00;99.90
5258;DHT22;2651;51.594;9.928;2023-08-24T01:04:27;18.00;1.00
5258;DHT22;2651;51.594;9.928;2023-08-24T01:05:29;18.00;1.00
5258;DHT22;2651;51.594;9.928;2023-08-24T01:06:31;18.10;99.90
5258;DHT22;2651;51.594;9.928;2023-08-24T01:07:38;18.10;99.90
5258;DHT22;2651;51.594;9.928;2023-08-24T01:08:40;18.10;1.00
5258;DHT22;2651;51.594;9.928;2023-08-24T01:09:42;18.10;75.70
5258;DHT22;2651;51.594;9.928;2023-08-24T01:10:52;18.10;1.00
5258;DHT22;2651;51.594;9.928;2023-08-24T01:12:02;18.20;1.00
5258;DHT22;2651;51.594;9.928;2023-08-24T01:13:10;18.10;1.00
5258;DHT22;2651;51.594;9.928;2023-08-24T01:14:30;18.20;1.00
5258;DHT22;2651;51.594;9.928;2023-08-24T01:15:42;18.10;1.00
5258;DHT22;2651;51.594;9.928;2023-08-24T01:16:51;18.10;1.00
5258;DHT22;2651;51.594;9.928;2023-08-24T01:17:59;18.10;99.90
5258;DHT22;2651;51.594;9.928;2023-08-24T01:19:04;18.10;99.90
5258;DHT22;2651;51.594;9.928;2023-08-24T01:20:09;18.10;1.00
5258;DHT22;2651;51.594;9.928;2023-08-24T01:21:12;18.10;99.90
5258;DHT22;2651;51.594;9.928;2023-08-24T01:24:04;18.10;1.00
5258;DHT22;2651;51.594;9.928;2023-08-24T01:25:21;18.10;1.00
5258;DHT22;2651;51.594;9.928;2023-08-24T01:26:26;18.10;99.90
5258;DHT22;2651;51.594;9.928;2023-08-24T01:27:28;18.10;3.00
5258;DHT22;2651;51.594;9.928;2023-08-24T01:28:31;18.10;99.90
5258;DHT22;2651;51.594;9.928;2023-08-24T01:29:33;18.20;99.90
5258;DHT22;2651;51.594;9.928;2023-08-24T01:30:36;18.20;29.20
5258;DHT22;2651;51.594;9.928;2023-08-24T01:31:38;18.10;1.00
5258;DHT22;2651;51.594;9.928;2023-08-24T01:32:40;18.10;1.00
5258;DHT22;2651;51.594;9.928;2023-08-24T01:33:42;18.10;1.00
5258;DHT22;2651;51.594;9.928;2023-08-24T01:34:44;18.00;68.10
5258;DHT22;2651;51.594;9.928;2023-08-24T01:35:46;18.00;99.90
5258;DHT22;2651;51.594;9.928;2023-08-24T01:36:48;18.00;99.90
5258;DHT22;2651;51.594;9.928;2023-08-24T01:37:50;17.90;1.00
5258;DHT22;2651;51.594;9.928;2023-08-24T01:39:13;17.90;1.00
5258;DHT22;2651;51.594;9.928;2023-08-24T01:40:17;17.80;99.90
5258;DHT22;2651;51.594;9.928;2023-08-24T01:41:28;17.80;1.00
5258;DHT22;2651;51.594;9.928;2023-08-24T01:42:33;17.80;1.00
5258;DHT22;2651;51.594;9.928;2023-08-24T01:43:38;17.80;1.00
5258;DHT22;2651;51.594;9.928;2023-08-24T01:44:49;17.80;1.00
5258;DHT22;2651;51.594;9.928;2023-08-24T01:45:52;17.50;99.90
5258;DHT22;2651;51.594;9.928;2023-08-24T01:46:55;17.40;1.00
5258;DHT22;2651;51.594;9.928;2023-08-24T01:48:03;17.50;1.00
5258;DHT22;2651;51.594;9.928;2023-08-24T01:49:07;17.50;1.00
5258;DHT22;2651;51.594;9.928;2023-08-24T01:50:09;17.50;1.00
5258;DHT22;2651;51.594;9.928;2023-08-24T01:51:11;17.50;1.00
5258;DHT22;2651;51.594;9.928;2023-08-24T01:52:14;17.60;1.00
5258;DHT22;2651;51.594;9.928;2023-08-24T01:53:15;17.60;1.00
5258;DHT22;2651;51.594;9.928;2023-08-24T01:54:17;17.60;1.00
5258;DHT22;2651;51.594;9.928;2023-08-24T01:55:20;17.60;1.00
5258;DHT22;2651;51.594;9.928;2023-08-24T01:56:21;17.70;1.00
5258;DHT22;2651;51.594;9.928;2023-08-24T01:57:23;17.70;99.90
5258;DHT22;2651;51.594;9.928;2023-08-24T01:58:25;17.70;99.90
5258;DHT22;2651;51.594;9.928;2023-08-24T01:59:26;17.70;25.80
5258;DHT22;2651;51.594;9.928;2023-08-24T02:00:28;17.70;1.00
5258;DHT22;2651;51.594;9.928;2023-08-24T02:01:30;17.70;65.80
5258;DHT22;2651;51.594;9.928;2023-08-24T02:02:32;17.70;99.90
5258;DHT22;2651;51.594;9.928;2023-08-24T02:03:34;17.60;99.90
5258;DHT22;2651;51.594;9.928;2023-08-24T02:04:36;17.60;1.00
5258;DHT22;2651;51.594;9.928;2023-08-24T02:05:38;17.60;1.00
5258;DHT22;2651;51.594;9.928;2023-08-24T02:06:40;17.60;1.00
5258;DHT22;2651;51.594;9.928;2023-08-24T02:07:41;17.70;1.00
5258;DHT22;2651;51.594;9.928;2023-08-24T02:08:43;17.70;1.00
5258;DHT22;2651;51.594;9.928;2023-08-24T02:09:46;17.70;1.00
5258;DHT22;2651;51.594;9.928;2023-08-24T02:10:48;17.70;1.00
5258;DHT22;2651;51.594;9.928;2023-08-24T02:11:49;17.70;1.00
5258;DHT22;2651;51.594;9.928;2023-08-24T02:12:51;17.70;99.90
5258;DHT22;2651;51.594;9.928;2023-08-24T02:13:53;17.70;99.90
5258;DHT22;2651;51.594;9.928;2023-08-24T02:14:55;17.70;99.90
5258;DHT22;2651;51.594;9.928;2023-08-24T02:16:07;17.70;99.90
5258;DHT22;2651;51.594;9.928;2023-08-24T02:17:10;17.60;1.00
5258;DHT22;2651;51.594;9.928;2023-08-24T02:18:12;17.60;1.00
5258;DHT22;2651;51.594;9.928;2023-08-24T02:19:14;17.60;1.00
5258;DHT22;2651;51.594;9.928;2023-08-24T02:20:15;17.50;1.00
5258;DHT22;2651;51.594;9.928;2023-08-24T02:21:17;17.50;1.00
5258;DHT22;2651;51.594;9.928;2023-08-24T02:22:19;17.40;1.00
5258;DHT22;2651;51.594;9.928;2023-08-24T02:23:20;17.40;1.00
5258;DHT22;2651;51.594;9.928;2023-08-24T02:24:22;17.40;1.00
5258;DHT22;2651;51.594;9.928;2023-08-24T02:25:24;17.40;99.90
5258;DHT22;2651;51.594;9.928;2023-08-24T02:26:26;17.40;77.70
5258;DHT22;2651;51.594;9.928;2023-08-24T02:27:27;17.40;99.90
5258;DHT22;2651;51.594;9.928;2023-08-24T02:28:29;17.30;99.90
5258;DHT22;2651;51.594;9.928;2023-08-24T02:29:31;17.30;1.00
5258;DHT22;2651;51.594;9.928;2023-08-24T02:30:32;17.30;1.00
5258;DHT22;2651;51.594;9.928;2023-08-24T02:31:34;17.30;1.00
5258;DHT22;2651;51.594;9.928;2023-08-24T02:32:36;17.30;1.00
5258;DHT22;2651;51.594;9.928;2023-08-24T02:33:37;17.30;1.00
5258;DHT22;2651;51.594;9.928;2023-08-24T02:34:39;17.30;1.00
5258;DHT22;2651;51.594;9.928;2023-08-24T02:35:41;17.30;1.00
5258;DHT22;2651;51.594;9.928;2023-08-24T02:36:42;17.30;1.00
5258;DHT22;2651;51.594;9.928;2023-08-24T02:37:44;17.30;1.00
5258;DHT22;2651;51.594;9.928;2023-08-24T02:38:47;17.30;1.00
5258;DHT22;2651;51.594;9.928;2023-08-24T02:39:48;17.20;1.00
5258;DHT22;2651;51.594;9.928;2023-08-24T02:41:00;17.20;1.00
5258;DHT22;2651;51.594;9.928;2023-08-24T02:42:03;17.10;1.00
5258;DHT22;2651;51.594;9.928;2023-08-24T02:43:04;17.00;1.00
5258;DHT22;2651;51.594;9.928;2023-08-24T02:44:06;17.00;1.00
5258;DHT22;2651;51.594;9.928;2023-08-24T02:45:08;16.90;1.00
5258;DHT22;2651;51.594;9.928;2023-08-24T02:46:10;16.90;93.20
5258;DHT22;2651;51.594;9.928;2023-08-24T02:47:12;17.00;99.90
5258;DHT22;2651;51.594;9.928;2023-08-24T02:48:13;17.00;98.40
5258;DHT22;2651;51.594;9.928;2023-08-24T02:49:15;17.00;59.50
5258;DHT22;2651;51.594;9.928;2023-08-24T02:50:17;17.10;42.30
5258;DHT22;2651;51.594;9.928;2023-08-24T02:51:21;16.90;1.00
5258;DHT22;2651;51.594;9.928;2023-08-24T02:52:23;16.90;69.70
5258;DHT22;2651;51.594;9.928;2023-08-24T02:53:25;16.90;99.90
5258;DHT22;2651;51.594;9.928;2023-08-24T02:54:26;16.90;99.90
5258;DHT22;2651;51.594;9.928;2023-08-24T02:55:32;16.90;99.90
5258;DHT22;2651;51.594;9.928;2023-08-24T02:56:33;16.90;99.90
5258;DHT22;2651;51.594;9.928;2023-08-24T02:57:35;17.00;99.90
5258;DHT22;2651;51.594;9.928;2023-08-24T02:58:37;17.00;99.90
5258;DHT22;2651;51.594;9.928;2023-08-24T02:59:38;17.00;99.90
5258;DHT22;2651;51.594;9.928;2023-08-24T03:00:40;17.10;40.70
5258;DHT22;2651;51.594;9.928;2023-08-24T03:01:42;17.10;61.60
5258;DHT22;2651;51.594;9.928;2023-08-24T03:02:44;17.10;18.80
5258;DHT22;2651;51.594;9.928;2023-08-24T03:03:45;17.10;1.00
5258;DHT22;2651;51.594;9.928;2023-08-24T03:04:47;17.10;11.10
5258;DHT22;2651;51.594;9.928;2023-08-24T03:05:54;17.10;1.00
5258;DHT22;2651;51.594;9.928;2023-08-24T03:06:55;17.10;11.30
5258;DHT22;2651;51.594;9.928;2023-08-24T03:07:58;17.10;1.00
5258;DHT22;2651;51.594;9.928;2023-08-24T03:09:01;17.10;27.50
5258;DHT22;2651;51.594;9.928;2023-08-24T03:10:06;17.10;33.60
5258;DHT22;2651;51.594;9.928;2023-08-24T03:11:07;17.10;1.00
5258;DHT22;2651;51.594;9.928;2023-08-24T03:12:10;17.10;1.00
5258;DHT22;2651;51.594;9.928;2023-08-24T03:13:11;17.10;1.00
5258;DHT22;2651;51.594;9.928;2023-08-24T03:14:13;17.20;1.00
5258;DHT22;2651;51.594;9.928;2023-08-24T03:15:15;17.20;1.00
5258;DHT22;2651;51.594;9.928;2023-08-24T03:16:17;17.20;1.00
5258;DHT22;2651;51.594;9.928;2023-08-24T03:17:19;17.10;1.00
5258;DHT22;2651;51.594;9.928;2023-08-24T03:18:20;17.10;1.00
5258;DHT22;2651;51.594;9.928;2023-08-24T03:19:22;17.10;1.00
5258;DHT22;2651;51.594;9.928;2023-08-24T03:20:24;17.10;1.00
5258;DHT22;2651;51.594;9.928;2023-08-24T03:21:26;17.00;1.00
5258;DHT22;2651;51.594;9.928;2023-08-24T03:22:27;17.00;1.00
5258;DHT22;2651;51.594;9.928;2023-08-24T03:23:29;17.00;1.00
5258;DHT22;2651;51.594;9.928;2023-08-24T03:24:31;17.00;66.70
5258;DHT22;2651;51.594;9.928;2023-08-24T03:25:37;17.00;94.10
5258;DHT22;2651;51.594;9.928;2023-08-24T03:26:39;16.90;99.90
5258;DHT22;2651;51.594;9.928;2023-08-24T03:27:40;16.90;99.90
5258;DHT22;2651;51.594;9.928;2023-08-24T03:28:43;16.90;99.90
5258;DHT22;2651;51.594;9.928;2023-08-24T03:29:45;16.90;99.90
5258;DHT22;2651;51.594;9.928;2023-08-24T03:30:53;16.90;99.90
5258;DHT22;2651;51.594;9.928;2023-08-24T03:31:56;16.90;99.90
5258;DHT22;2651;51.594;9.928;2023-08-24T03:32:58;16.90;99.90
5258;DHT22;2651;51.594;9.928;2023-08-24T03:34:01;16.80;99.90
5258;DHT22;2651;51.594;9.928;2023-08-24T03:35:02;16.90;99.90
5258;DHT22;2651;51.594;9.928;2023-08-24T03:36:05;16.80;99.90
5258;DHT22;2651;51.594;9.928;2023-08-24T03:37:06;16.90;99.90
5258;DHT22;2651;51.594;9.928;2023-08-24T03:38:08;16.90;99.90
5258;DHT22;2651;51.594;9.928;2023-08-24T03:39:10;16.90;99.90
5258;DHT22;2651;51.594;9.928;2023-08-24T03:40:13;16.80;99.90
5258;DHT22;2651;51.594;9.928;2023-08-24T03:41:14;16.90;99.90
5258;DHT22;2651;51.594;9.928;2023-08-24T03:42:16;16.80;98.30
5258;DHT22;2651;51.594;9.928;2023-08-24T03:43:18;16.80;99.90
5258;DHT22;2651;51.594;9.928;2023-08-24T03:44:19;16.80;99.90
5258;DHT22;2651;51.594;9.928;2023-08-24T03:45:21;16.80;99.90
5258;DHT22;2651;51.594;9.928;2023-08-24T03:46:23;16.80;99.90
5258;DHT22;2651;51.594;9.928;2023-08-24T03:47:25;16.80;99.90
5258;DHT22;2651;51.594;9.928;2023-08-24T03:48:27;16.80;99.90
5258;DHT22;2651;51.594;9.928;2023-08-24T03:49:29;16.80;99.90
5258;DHT22;2651;51.594;9.928;2023-08-24T03:50:30;16.80;99.90
5258;DHT22;2651;51.594;9.928;2023-08-24T03:51:32;16.80;99.90
5258;DHT22;2651;51.594;9.928;2023-08-24T03:52:34;16.90;94.90
5258;DHT22;2651;51.594;9.928;2023-08-24T03:53:35;16.90;66.30
5258;DHT22;2651;51.594;9.928;2023-08-24T03:54:37;16.90;37.50
5258;DHT22;2651;51.594;9.928;2023-08-24T03:55:39;16.90;28.50
5258;DHT22;2651;51.594;9.928;2023-08-24T03:56:40;16.90;4.60
5258;DHT22;2651;51.594;9.928;2023-08-24T03:57:42;16.90;21.30
5258;DHT22;2651;51.594;9.928;2023-08-24T03:58:44;16.90;3.00
5258;DHT22;2651;51.594;9.928;2023-08-24T03:59:45;16.90;1.00
5258;DHT22;2651;51.594;9.928;2023-08-24T04:00:47;16.90;40.60
5258;DHT22;2651;51.594;9.928;2023-08-24T04:01:49;16.80;1.00
5258;DHT22;2651;51.594;9.928;2023-08-24T04:02:51;16.70;1.00
5258;DHT22;2651;51.594;9.928;2023-08-24T04:03:52;16.50;1.00
5258;DHT22;2651;51.594;9.928;2023-08-24T04:04:54;16.50;99.90
5258;DHT22;2651;51.594;9.928;2023-08-24T04:05:56;16.60;99.90
5258;DHT22;2651;51.594;9.928;2023-08-24T04:06:57;16.60;99.90
5258;DHT22;2651;51.594;9.928;2023-08-24T04:07:59;16.70;99.90
5258;DHT22;2651;51.594;9.928;2023-08-24T04:09:02;16.70;99.90
5258;DHT22;2651;51.594;9.928;2023-08-24T04:10:05;16.70;99.90
5258;DHT22;2651;51.594;9.928;2023-08-24T04:11:07;16.70;99.90
5258;DHT22;2651;51.594;9.928;2023-08-24T04:12:09;16.70;96.70
5258;DHT22;2651;51.594;9.928;2023-08-24T04:13:10;16.70;1.00
5258;DHT22;2651;51.594;9.928;2023-08-24T04:14:12;16.60;1.00
5258;DHT22;2651;51.594;9.928;2023-08-24T04:15:15;16.50;87.50
5258;DHT22;2651;51.594;9.928;2023-08-24T04:16:17;16.50;99.90
5258;DHT22;2651;51.594;9.928;2023-08-24T04:17:18;16.60;99.90
5258;DHT22;2651;51.594;9.928;2023-08-24T04:18:20;16.60;99.90
5258;DHT22;2651;51.594;9.928;2023-08-24T04:19:22;16.60;99.90
5258;DHT22;2651;51.594;9.928;2023-08-24T04:20:23;16.70;99.90
5258;DHT22;2651;51.594;9.928;2023-08-24T04:21:25;16.60;99.90
5258;DHT22;2651;51.594;9.928;2023-08-24T04:22:27;16.70;99.90
5258;DHT22;2651;51.594;9.928;2023-08-24T04:23:29;16.70;99.90
5258;DHT22;2651;51.594;9.928;2023-08-24T04:24:30;16.70;99.90
5258;DHT22;2651;51.594;9.928;2023-08-24T04:25:32;16.70;99.90
5258;DHT22;2651;51.594;9.928;2023-08-24T04:26:34;16.70;99.90
5258;DHT22;2651;51.594;9.928;2023-08-24T04:27:36;16.70;99.90
5258;DHT22;2651;51.594;9.928;2023-08-24T04:28:38;16.70;99.90
5258;DHT22;2651;51.594;9.928;2023-08-24T04:29:40;16.60;99.90
5258;DHT22;2651;51.594;9.928;2023-08-24T04:30:49;16.60;99.90
5258;DHT22;2651;51.594;9.928;2023-08-24T04:31:51;16.60;99.90
5258;DHT22;2651;51.594;9.928;2023-08-24T04:32:52;16.60;99.90
5258;DHT22;2651;51.594;9.928;2023-08-24T04:33:55;16.60;99.90
5258;DHT22;2651;51.594;9.928;2023-08-24T04:34:56;16.60;99.90
5258;DHT22;2651;51.594;9.928;2023-08-24T04:35:58;16.60;99.90
5258;DHT22;2651;51.594;9.928;2023-08-24T04:37:00;16.60;99.90
5258;DHT22;2651;51.594;9.928;2023-08-24T04:38:03;16.60;99.90
5258;DHT22;2651;51.594;9.928;2023-08-24T04:39:04;16.60;99.90
5258;DHT22;2651;51.594;9.928;2023-08-24T04:40:06;16.60;99.90
5258;DHT22;2651;51.594;9.928;2023-08-24T04:41:12;16.60;99.90
5258;DHT22;2651;51.594;9.928;2023-08-24T04:42:14;16.60;99.90
5258;DHT22;2651;51.594;9.928;2023-08-24T04:43:16;16.60;99.90
5258;DHT22;2651;51.594;9.928;2023-08-24T04:44:18;16.60;99.90
5258;DHT22;2651;51.594;9.928;2023-08-24T04:45:20;16.60;99.90
5258;DHT22;2651;51.594;9.928;2023-08-24T04:46:22;16.60;99.90
5258;DHT22;2651;51.594;9.928;2023-08-24T04:47:23;16.60;99.90
5258;DHT22;2651;51.594;9.928;2023-08-24T04:48:25;16.60;99.90
5258;DHT22;2651;51.594;9.928;2023-08-24T04:49:29;16.60;99.90
5258;DHT22;2651;51.594;9.928;2023-08-24T04:50:31;16.60;99.90
5258;DHT22;2651;51.594;9.928;2023-08-24T04:51:33;16.60;99.90
5258;DHT22;2651;51.594;9.928;2023-08-24T04:52:34;16.60;99.90
5258;DHT22;2651;51.594;9.928;2023-08-24T04:53:36;16.70;99.90
5258;DHT22;2651;51.594;9.928;2023-08-24T04:54:38;16.70;99.90
5258;DHT22;2651;51.594;9.928;2023-08-24T04:55:40;16.70;99.90
5258;DHT22;2651;51.594;9.928;2023-08-24T04:56:42;16.70;99.90
5258;DHT22;2651;51.594;9.928;2023-08-24T04:57:44;16.80;99.90
5258;DHT22;2651;51.594;9.928;2023-08-24T04:58:58;16.80;99.90
5258;DHT22;2651;51.594;9.928;2023-08-24T05:00:02;16.80;99.90
5258;DHT22;2651;51.594;9.928;2023-08-24T05:01:06;16.80;99.90
5258;DHT22;2651;51.594;9.928;2023-08-24T05:02:08;16.70;99.90
5258;DHT22;2651;51.594;9.928;2023-08-24T05:03:10;16.80;99.90
5258;DHT22;2651;51.594;9.928;2023-08-24T05:04:12;16.70;99.90
5258;DHT22;2651;51.594;9.928;2023-08-24T05:05:14;16.70;99.90
5258;DHT22;2651;51.594;9.928;2023-08-24T05:06:16;16.70;99.90
5258;DHT22;2651;51.594;9.928;2023-08-24T05:07:17;16.60;99.90
5258;DHT22;2651;51.594;9.928;2023-08-24T05:08:19;16.60;99.90
5258;DHT22;2651;51.594;9.928;2023-08-24T05:09:21;16.60;99.90
5258;DHT22;2651;51.594;9.928;2023-08-24T05:10:23;16.60;99.90
5258;DHT22;2651;51.594;9.928;2023-08-24T05:11:27;16.60;99.90
5258;DHT22;2651;51.594;9.928;2023-08-24T05:12:30;16.60;99.90
5258;DHT22;2651;51.594;9.928;2023-08-24T05:13:32;16.60;99.90
5258;DHT22;2651;51.594;9.928;2023-08-24T05:14:33;16.50;99.90
5258;DHT22;2651;51.594;9.928;2023-08-24T05:15:36;16.60;99.90
5258;DHT22;2651;51.594;9.928;2023-08-24T05:16:37;16.60;99.90
5258;DHT22;2651;51.594;9.928;2023-08-24T05:17:40;16.70;99.90
5258;DHT22;2651;51.594;9.928;2023-08-24T05:18:42;16.70;99.90
5258;DHT22;2651;51.594;9.928;2023-08-24T05:19:43;16.70;99.90
5258;DHT22;2651;51.594;9.928;2023-08-24T05:20:45;16.80;99.90
5258;DHT22;2651;51.594;9.928;2023-08-24T05:21:47;16.80;99.90
5258;DHT22;2651;51.594;9.928;2023-08-24T05:22:49;16.80;99.90
5258;DHT22;2651;51.594;9.928;2023-08-24T05:23:50;16.90;99.90
5258;DHT22;2651;51.594;9.928;2023-08-24T05:24:52;17.00;99.90
5258;DHT22;2651;51.594;9.928;2023-08-24T05:25:54;17.00;99.90
5258;DHT22;2651;51.594;9.928;2023-08-24T05:26:55;17.00;99.90
5258;DHT22;2651;51.594;9.928;2023-08-24T05:27:57;17.00;99.90
5258;DHT22;2651;51.594;9.928;2023-08-24T05:28:59;17.10;99.90
5258;DHT22;2651;51.594;9.928;2023-08-24T05:30:00;17.10;99.90
5258;DHT22;2651;51.594;9.928;2023-08-24T05:31:02;17.20;99.90
5258;DHT22;2651;51.594;9.928;2023-08-24T05:32:04;17.20;99.90
5258;DHT22;2651;51.594;9.928;2023-08-24T05:33:06;17.20;99.90
5258;DHT22;2651;51.594;9.928;2023-08-24T05:34:08;17.20;99.90
5258;DHT22;2651;51.594;9.928;2023-08-24T05:35:09;17.10;99.90
5258;DHT22;2651;51.594;9.928;2023-08-24T05:36:11;17.10;99.90
5258;DHT22;2651;51.594;9.928;2023-08-24T05:37:13;17.00;99.90
5258;DHT22;2651;51.594;9.928;2023-08-24T05:38:15;17.00;99.90
5258;DHT22;2651;51.594;9.928;2023-08-24T05:39:17;17.00;99.90
5258;DHT22;2651;51.594;9.928;2023-08-24T05:40:19;16.90;99.90
5258;DHT22;2651;51.594;9.928;2023-08-24T05:41:20;16.90;99.90
5258;DHT22;2651;51.594;9.928;2023-08-24T05:42:22;16.90;99.90
5258;DHT22;2651;51.594;9.928;2023-08-24T05:43:23;16.90;99.90
5258;DHT22;2651;51.594;9.928;2023-08-24T05:44:25;17.00;99.90
5258;DHT22;2651;51.594;9.928;2023-08-24T05:45:27;17.10;99.90
5258;DHT22;2651;51.594;9.928;2023-08-24T05:46:28;17.10;99.90
5258;DHT22;2651;51.594;9.928;2023-08-24T05:47:30;17.10;99.90
5258;DHT22;2651;51.594;9.928;2023-08-24T05:48:32;17.20;99.90
5258;DHT22;2651;51.594;9.928;2023-08-24T05:49:34;17.30;99.90
5258;DHT22;2651;51.594;9.928;2023-08-24T05:50:35;17.30;99.90
5258;DHT22;2651;51.594;9.928;2023-08-24T05:51:39;17.40;99.90
5258;DHT22;2651;51.594;9.928;2023-08-24T05:52:40;17.40;99.90
5258;DHT22;2651;51.594;9.928;2023-08-24T05:53:42;17.50;99.90
5258;DHT22;2651;51.594;9.928;2023-08-24T05:54:44;17.60;51.70
5258;DHT22;2651;51.594;9.928;2023-08-24T05:55:46;17.60;41.90
5258;DHT22;2651;51.594;9.928;2023-08-24T05:56:47;17.70;12.80
5258;DHT22;2651;51.594;9.928;2023-08-24T05:57:49;17.80;27.90
5258;DHT22;2651;51.594;9.928;2023-08-24T05:58:51;17.90;1.00
5258;DHT22;2651;51.594;9.928;2023-08-24T05:59:53;18.00;1.00
5258;DHT22;2651;51.594;9.928;2023-08-24T06:00:58;18.10;1.00
5258;DHT22;2651;51.594;9.928;2023-08-24T06:02:00;18.10;1.00
5258;DHT22;2651;51.594;9.928;2023-08-24T06:03:02;18.20;99.90
5258;DHT22;2651;51.594;9.928;2023-08-24T06:04:11;18.20;99.90
5258;DHT22;2651;51.594;9.928;2023-08-24T06:05:12;18.20;1.00
5258;DHT22;2651;51.594;9.928;2023-08-24T06:06:14;18.30;1.00
5258;DHT22;2651;51.594;9.928;2023-08-24T06:07:16;18.40;99.90
5258;DHT22;2651;51.594;9.928;2023-08-24T06:08:18;18.50;99.90
5258;DHT22;2651;51.594;9.928;2023-08-24T06:09:20;18.50;86.60
5258;DHT22;2651;51.594;9.928;2023-08-24T06:10:22;18.60;1.00
5258;DHT22;2651;51.594;9.928;2023-08-24T06:11:25;18.60;1.00
5258;DHT22;2651;51.594;9.928;2023-08-24T06:12:27;18.60;1.00
5258;DHT22;2651;51.594;9.928;2023-08-24T06:13:29;18.60;1.00
5258;DHT22;2651;51.594;9.928;2023-08-24T06:14:30;18.60;99.90
5258;DHT22;2651;51.594;9.928;2023-08-24T06:15:32;18.50;1.00
5258;DHT22;2651;51.594;9.928;2023-08-24T06:16:34;18.50;99.90
5258;DHT22;2651;51.594;9.928;2023-08-24T06:17:35;18.50;1.00
5258;DHT22;2651;51.594;9.928;2023-08-24T06:18:37;18.40;1.00
5258;DHT22;2651;51.594;9.928;2023-08-24T06:19:39;18.40;1.00
5258;DHT22;2651;51.594;9.928;2023-08-24T06:20:40;18.50;99.90
5258;DHT22;2651;51.594;9.928;2023-08-24T06:21:42;18.50;99.90
5258;DHT22;2651;51.594;9.928;2023-08-24T06:22:44;18.50;59.50
5258;DHT22;2651;51.594;9.928;2023-08-24T06:23:46;18.50;1.00
5258;DHT22;2651;51.594;9.928;2023-08-24T06:24:48;18.60;1.00
5258;DHT22;2651;51.594;9.928;2023-08-24T06:25:51;18.50;1.00
5258;DHT22;2651;51.594;9.928;2023-08-24T06:26:52;18.60;62.20
5258;DHT22;2651;51.594;9.928;2023-08-24T06:27:54;18.50;99.90
5258;DHT22;2651;51.594;9.928;2023-08-24T06:28:56;18.60;1.00
5258;DHT22;2651;51.594;9.928;2023-08-24T06:29:57;18.60;99.90
5258;DHT22;2651;51.594;9.928;2023-08-24T06:31:00;18.50;99.90
5258;DHT22;2651;51.594;9.928;2023-08-24T06:32:02;18.50;1.00
5258;DHT22;2651;51.594;9.928;2023-08-24T06:33:04;18.50;99.90
5258;DHT22;2651;51.594;9.928;2023-08-24T06:34:06;18.60;1.00
5258;DHT22;2651;51.594;9.928;2023-08-24T06:35:08;18.60;99.90
5258;DHT22;2651;51.594;9.928;2023-08-24T06:36:10;18.60;99.90
5258;DHT22;2651;51.594;9.928;2023-08-24T06:37:13;18.60;99.90
5258;DHT22;2651;51.594;9.928;2023-08-24T06:38:16;18.60;99.90
5258;DHT22;2651;51.594;9.928;2023-08-24T06:39:17;18.70;99.90
5258;DHT22;2651;51.594;9.928;2023-08-24T06:40:19;18.70;99.90
5258;DHT22;2651;51.594;9.928;2023-08-24T06:41:21;18.70;99.90
5258;DHT22;2651;51.594;9.928;2023-08-24T06:42:22;18.80;1.00
5258;DHT22;2651;51.594;9.928;2023-08-24T06:43:28;18.80;1.00
5258;DHT22;2651;51.594;9.928;2023-08-24T06:44:30;18.90;99.90
5258;DHT22;2651;51.594;9.928;2023-08-24T06:45:31;18.90;99.90
5258;DHT22;2651;51.594;9.928;2023-08-24T06:46:33;18.80;99.90
5258;DHT22;2651;51.594;9.928;2023-08-24T06:47:35;18.90;1.00
5258;DHT22;2651;51.594;9.928;2023-08-24T06:48:37;18.90;99.90
5258;DHT22;2651;51.594;9.928;2023-08-24T06:49:38;18.90;99.90
5258;DHT22;2651;51.594;9.928;2023-08-24T06:50:40;18.90;1.00
5258;DHT22;2651;51.594;9.928;2023-08-24T06:51:42;18.90;1.00